Time;durP1;ratioP1;P1;durP2;ratioP2;P2;SDS_P1;SDS_P2;PMS_P1;PMS_P2;Temp;Humidity;BMP_temperature;BMP_pressure;BME280_temperature;BME280_humidity;BME280_pressure;Samples;Min_cycle;Max_cycle;Signal;HPM_P1;HPM_P2
2023/02/01 00:01:08;;;;;;;10.98;1.72;;;;;;;2.12;91.73;97821.35;1733020;81;21038;-89
2023/02/01 00:03:34;;;;;;;7.35;1.60;;;;;;;2.14;91.72;97813.12;1733669;81;21108;-90
2023/02/01 00:06:01;;;;;;;7.83;2.02;;;;;;;2.13;91.69;97829.45;1727706;81;21157;-89
2023/02/01 00:08:28;;;;;;;7.83;1.72;;;;;;;2.15;91.68;97837.95;1751226;81;21077;-90
2023/02/01 00:11:07;;;;;;;6.37;1.50;;;;;;;2.15;91.70;97838.78;1744306;81;21088;-90
2023/02/01 00:13:38;;;;;;;8.38;1.60;;;;;;;2.17;91.78;97846.45;1740181;81;21088;-89
2023/02/01 00:16:09;;;;;;;4.97;1.45;;;;;;;2.21;91.73;97836.39;1743411;81;20972;-88
2023/02/01 00:18:36;;;;;;;6.95;1.50;;;;;;;2.20;91.80;97823.14;1753998;80;21789;-89
2023/02/01 00:21:03;;;;;;;6.90;1.20;;;;;;;2.23;91.72;97823.01;1752828;81;21073;-89
2023/02/01 00:23:35;;;;;;;12.82;2.52;;;;;;;2.25;91.69;97819.92;1749459;81;21129;-89
2023/02/01 00:26:08;;;;;;;8.75;1.65;;;;;;;2.27;91.74;97824.56;1748474;80;21529;-88
2023/02/01 00:28:34;;;;;;;8.78;1.30;;;;;;;2.29;91.75;97830.45;1749444;80;21442;-90
2023/02/01 00:31:03;;;;;;;5.50;1.42;;;;;;;2.30;91.68;97832.15;1751771;81;21713;-90
2023/02/01 00:33:32;;;;;;;6.08;1.52;;;;;;;2.30;91.72;97857.04;1749739;81;21522;-89
2023/02/01 00:36:05;;;;;;;6.03;1.67;;;;;;;2.30;91.66;97843.73;1751239;81;21069;-89
2023/02/01 00:38:33;;;;;;;6.58;1.50;;;;;;;2.24;91.79;97842.69;1741824;81;21157;-89
2023/02/01 00:41:12;;;;;;;6.97;1.35;;;;;;;2.23;91.91;97828.16;1748540;80;21085;-89
2023/02/01 00:43:39;;;;;;;8.40;1.40;;;;;;;2.23;91.80;97823.01;1751083;80;21113;-89
2023/02/01 00:46:06;;;;;;;7.80;1.82;;;;;;;2.18;91.87;97837.81;1753981;80;21125;-90
2023/02/01 00:48:33;;;;;;;10.50;1.50;;;;;;;2.17;91.82;97838.73;1751222;80;21089;-88
2023/02/01 00:51:06;;;;;;;13.22;1.60;;;;;;;2.12;91.81;97827.33;1748649;80;21089;-89
2023/02/01 00:53:34;;;;;;;7.80;1.50;;;;;;;2.11;91.88;97840.28;1757586;81;21124;-90
2023/02/01 00:56:00;;;;;;;7.33;1.50;;;;;;;2.10;91.95;97830.45;1749079;81;21038;-89
2023/02/01 00:58:27;;;;;;;7.92;1.55;;;;;;;2.11;91.97;97836.42;1739899;80;21108;-90
2023/02/01 01:01:13;;;;;;;7.17;1.45;;;;;;;2.14;92.04;97842.27;1746784;81;21089;-89
2023/02/01 01:03:44;;;;;;;9.20;1.95;;;;;;;2.14;91.94;97831.14;1749051;80;21053;-90
2023/02/01 01:06:15;;;;;;;8.50;1.80;;;;;;;2.11;91.75;97820.98;1752401;80;21535;-90
2023/02/01 01:08:42;;;;;;;4.67;1.92;;;;;;;2.09;91.80;97827.92;1742469;81;21168;-90
2023/02/01 01:11:16;;;;;;;5.17;1.30;;;;;;;2.05;91.80;97817.39;1751534;81;21718;-90
2023/02/01 01:13:46;;;;;;;5.55;1.40;;;;;;;1.98;91.85;97837.39;1746275;81;21069;-89
2023/02/01 01:16:12;;;;;;;4.67;1.47;;;;;;;1.94;91.79;97830.25;1748075;80;21084;-89
2023/02/01 01:18:40;;;;;;;9.20;1.77;;;;;;;1.85;91.75;97816.92;1745508;81;20943;-89
2023/02/01 01:21:08;;;;;;;6.60;1.75;;;;;;;1.85;91.87;97828.08;1741742;80;20975;-90
2023/02/01 01:23:36;;;;;;;8.60;1.65;;;;;;;1.86;91.85;97828.45;1755097;80;21010;-89
2023/02/01 01:26:07;;;;;;;;;;;;;;;1.85;91.90;97835.80;1746135;80;21104;-89
2023/02/01 01:28:34;;;;;;;8.88;1.65;;;;;;;1.91;91.91;97827.81;1747553;80;20133;-89
2023/02/01 01:31:01;;;;;;;7.33;1.30;;;;;;;1.95;91.92;97849.10;1744020;80;21594;-90
2023/02/01 01:33:29;;;;;;;10.60;1.93;;;;;;;1.98;91.84;97854.95;1744381;81;21635;-89
2023/02/01 01:35:56;;;;;;;5.47;1.45;;;;;;;2.03;91.91;97851.36;1752688;80;21064;-88
2023/02/01 01:38:22;;;;;;;11.40;2.00;;;;;;;2.08;91.84;97855.41;1757439;80;21070;-89
2023/02/01 01:40:52;;;;;;;7.33;1.87;;;;;;;2.11;91.80;97848.84;1756410;80;21097;-90
2023/02/01 01:43:23;;;;;;;8.18;1.75;;;;;;;2.11;91.83;97849.30;1749859;79;21098;-90
2023/02/01 01:45:50;;;;;;;6.30;1.75;;;;;;;2.13;91.85;97839.75;1749977;81;21084;-89
2023/02/01 01:48:29;;;;;;;9.73;2.12;;;;;;;2.14;91.83;97846.13;1750267;81;21002;-90
2023/02/01 01:51:10;;;;;;;9.38;2.17;;;;;;;2.15;91.80;97845.67;1758506;80;21088;-90
2023/02/01 01:53:57;;;;;;;7.62;2.40;;;;;;;2.16;91.87;97835.78;1751936;80;21060;-89
2023/02/01 01:56:27;;;;;;;5.72;1.98;;;;;;;2.16;91.93;97838.36;1748847;80;21508;-90
2023/02/01 01:58:54;;;;;;;11.68;2.08;;;;;;;2.17;91.81;97825.86;1751533;81;21057;-90
2023/02/01 02:01:21;;;;;;;10.25;1.92;;;;;;;2.17;91.85;97806.55;1751333;80;21025;-90
2023/02/01 02:03:49;;;;;;;13.67;1.93;;;;;;;2.19;91.91;97806.03;1757534;80;21155;-90
2023/02/01 02:06:47;;;;;;;11.73;1.98;;;;;;;2.21;91.89;97802.92;1752167;80;21104;-90
2023/02/01 02:09:13;;;;;;;7.92;1.90;;;;;;;2.22;91.91;97826.50;1736648;80;21076;-90
2023/02/01 02:11:39;;;;;;;10.60;2.08;;;;;;;2.27;91.88;97809.11;1740056;81;21061;-89
2023/02/01 02:14:10;;;;;;;12.85;1.98;;;;;;;2.27;91.99;97807.83;1742374;80;21082;-89
2023/02/01 02:16:50;;;;;;;5.97;1.45;;;;;;;2.29;92.04;97806.45;1745698;80;21104;-90
2023/02/01 02:19:28;;;;;;;11.05;1.95;;;;;;;2.29;92.10;97807.28;1729734;80;21524;-89
2023/02/01 02:22:15;;;;;;;6.67;1.90;;;;;;;2.28;92.06;97801.75;1727989;80;21168;-89
2023/02/01 02:24:55;;;;;;;7.05;1.70;;;;;;;2.28;91.95;97802.22;1741717;80;21041;-90
2023/02/01 02:27:34;;;;;;;7.05;1.42;;;;;;;2.23;91.99;97770.22;1745121;81;21090;-89
2023/02/01 02:30:24;;;;;;;10.63;1.95;;;;;;;2.23;91.88;97813.99;1738134;81;21667;-90
2023/02/01 02:33:28;;;;;;;7.62;1.47;;;;;;;2.21;91.88;97807.64;1754239;80;21588;-90
2023/02/01 02:36:02;;;;;;;13.18;2.02;;;;;;;2.22;91.96;97813.63;1720406;82;21083;-89
2023/02/01 02:38:57;;;;;;;7.33;2.42;;;;;;;2.22;91.99;97800.75;1772064;79;21084;-89
2023/02/01 02:48:03;;;;;;;13.00;2.58;;;;;;;2.30;91.96;97814.13;1761233;79;21591;-90
2023/02/01 03:04:40;;;;;;;11.65;1.80;;;;;;;2.23;91.49;97812.70;1770740;80;21548;-90
2023/02/01 03:07:45;;;;;;;10.87;1.93;;;;;;;2.20;91.49;97811.55;1770777;78;22418;-89
2023/02/01 03:10:43;;;;;;;12.18;2.72;;;;;;;2.22;91.49;97818.77;1733913;81;20963;-90
2023/02/01 03:13:14;;;;;;;9.58;3.15;;;;;;;2.23;91.50;97812.70;1703710;81;21093;-89
2023/02/01 03:15:49;;;;;;;9.48;2.50;;;;;;;2.24;91.45;97816.94;1734249;81;21155;-89
2023/02/01 03:18:27;;;;;;;11.55;2.35;;;;;;;2.27;91.56;97809.11;1736560;81;21173;-89
2023/02/01 03:20:56;;;;;;;14.45;2.62;;;;;;;2.30;91.47;97815.41;1743221;81;21002;-90
2023/02/01 03:23:28;;;;;;;6.80;2.10;;;;;;;2.32;91.48;97814.87;1740810;80;21025;-89
2023/02/01 03:25:58;;;;;;;15.80;2.47;;;;;;;2.33;91.50;97815.27;1738691;80;21073;-89
2023/02/01 03:28:28;;;;;;;8.88;2.12;;;;;;;2.34;91.44;97833.67;1754467;80;21057;-89
2023/02/01 03:30:55;;;;;;;12.95;2.50;;;;;;;2.30;91.36;97819.27;1742583;81;21069;-90
2023/02/01 03:33:25;;;;;;;6.90;2.10;;;;;;;2.30;91.41;97816.70;1774448;80;20963;-89
2023/02/01 03:36:36;;;;;;;11.05;2.37;;;;;;;2.32;91.45;97826.91;1773386;80;21169;-90
2023/02/01 03:39:24;;;;;;;13.03;1.82;;;;;;;2.32;91.37;97814.87;1775318;79;21077;-89
2023/02/01 03:41:59;;;;;;;6.97;1.77;;;;;;;2.27;91.37;97821.98;1779763;79;21140;-90
2023/02/01 03:44:52;;;;;;;9.25;2.00;;;;;;;2.19;91.46;97824.06;1738944;81;21014;-89
2023/02/01 03:47:27;;;;;;;13.03;2.12;;;;;;;2.20;91.57;97837.30;1737015;81;21057;-90
2023/02/01 03:50:11;;;;;;;6.28;1.90;;;;;;;2.22;91.59;97831.64;1742892;81;21070;-89
2023/02/01 03:52:45;;;;;;;6.97;1.95;;;;;;;2.24;91.64;97847.84;1743622;80;21177;-89
2023/02/01 03:55:16;;;;;;;12.03;1.82;;;;;;;2.23;91.48;97846.18;1743011;81;21052;-90
2023/02/01 03:58:10;;;;;;;13.80;2.47;;;;;;;2.17;91.46;97833.12;1747178;80;21079;-89
2023/02/01 04:00:36;;;;;;;12.28;2.55;;;;;;;2.17;91.59;97805.25;1747823;80;21496;-89
2023/02/01 04:03:05;;;;;;;10.93;2.58;;;;;;;2.21;91.65;97836.39;1743743;80;21536;-90
2023/02/01 04:05:33;;;;;;;11.97;2.65;;;;;;;2.22;91.67;97835.51;1746227;81;20955;-89
2023/02/01 04:08:00;;;;;;;11.38;3.10;;;;;;;2.25;91.76;97818.63;1748808;81;21032;-90
2023/02/01 04:10:26;;;;;;;13.00;2.65;;;;;;;2.31;91.81;97823.51;1751959;80;21381;-90
2023/02/01 04:12:53;;;;;;;16.57;3.53;;;;;;;2.33;91.82;97824.28;1752647;80;21089;-90
2023/02/01 04:15:20;;;;;;;11.22;2.25;;;;;;;2.36;91.80;97822.03;1754203;81;21029;-89
2023/02/01 04:17:46;;;;;;;9.00;2.62;;;;;;;2.39;91.84;97820.14;1753866;80;21048;-90
2023/02/01 04:20:13;;;;;;;10.43;2.12;;;;;;;2.44;91.83;97827.22;1749660;80;21050;-89
2023/02/01 04:22:39;;;;;;;12.55;2.80;;;;;;;2.48;91.87;97837.38;1747560;80;21049;-89
2023/02/01 04:25:07;;;;;;;8.60;1.87;;;;;;;2.50;91.85;97831.72;1747192;80;21042;-89
2023/02/01 04:27:34;;;;;;;11.53;2.60;;;;;;;2.50;91.80;97849.75;1741304;80;20997;-88
2023/02/01 04:30:01;;;;;;;10.32;2.80;;;;;;;2.51;91.80;97834.66;1745943;81;21087;-89
2023/02/01 04:32:28;;;;;;;7.08;1.70;;;;;;;2.49;91.71;97836.47;1748162;80;21081;-89
2023/02/01 04:34:55;;;;;;;6.17;1.80;;;;;;;2.41;91.51;97854.41;1752983;80;21021;-89
2023/02/01 04:37:21;;;;;;;10.43;1.70;;;;;;;2.31;91.48;97847.97;1736856;82;21034;-90
2023/02/01 04:39:48;;;;;;;9.65;2.30;;;;;;;2.25;91.46;97857.26;1713507;81;20967;-89
2023/02/01 04:42:14;;;;;;;9.90;1.92;;;;;;;2.21;91.57;97845.41;1737091;80;21124;-89
2023/02/01 04:44:41;;;;;;;10.68;2.60;;;;;;;2.23;91.75;97835.87;1729401;82;21089;-90
2023/02/01 04:47:09;;;;;;;11.57;2.83;;;;;;;2.22;91.72;97835.51;1702191;82;21117;-89
2023/02/01 04:49:35;;;;;;;;;;;;;;;2.24;91.76;97827.24;1747679;80;21017;-90
2023/02/01 04:52:02;;;;;;;16.23;3.80;;;;;;;2.27;91.85;97831.00;1728416;81;20571;-89
2023/02/01 04:54:28;;;;;;;15.60;3.20;;;;;;;2.29;91.83;97824.02;1727307;82;21018;-89
2023/02/01 04:56:55;;;;;;;19.45;3.83;;;;;;;2.33;91.85;97816.55;1735854;81;20999;-89
2023/02/01 04:59:22;;;;;;;14.35;3.15;;;;;;;2.38;91.81;97822.34;1728944;82;21145;-89
2023/02/01 05:01:48;;;;;;;11.40;2.10;;;;;;;2.38;91.72;97822.34;1724937;81;21069;-88
2023/02/01 05:04:18;;;;;;;7.05;1.57;;;;;;;2.35;91.59;97837.94;1729456;80;21055;-89
2023/02/01 05:06:45;;;;;;;13.08;1.77;;;;;;;2.29;91.49;97840.76;1723472;81;21029;-90
2023/02/01 05:09:21;;;;;;;4.33;1.15;;;;;;;2.24;91.51;97840.12;1736219;80;21494;-90
2023/02/01 05:14:28;;;;;;;5.20;1.27;;;;;;;2.16;91.62;97834.49;1727116;80;21082;-89
2023/02/01 05:16:54;;;;;;;7.60;1.57;;;;;;;2.12;91.49;97841.49;1723089;81;21061;-89
2023/02/01 05:19:28;;;;;;;6.03;1.30;;;;;;;2.06;91.50;97833.20;1722029;81;21185;-88
2023/02/01 05:22:03;;;;;;;4.60;1.22;;;;;;;2.04;91.55;97842.73;1720943;81;21062;-89
2023/02/01 05:24:30;;;;;;;6.80;1.67;;;;;;;1.99;91.50;97846.34;1732064;81;20999;-89
2023/02/01 05:26:56;;;;;;;6.70;1.47;;;;;;;1.98;91.72;97839.50;1731856;81;21140;-89
2023/02/01 05:29:23;;;;;;;6.97;1.67;;;;;;;2.05;91.94;97831.55;1735396;80;21101;-89
2023/02/01 05:31:50;;;;;;;10.78;2.95;;;;;;;2.12;91.93;97851.79;1724800;81;21066;-90
2023/02/01 05:34:16;;;;;;;11.35;3.25;;;;;;;2.11;91.95;97857.02;1725879;81;21065;-89
2023/02/01 05:36:43;;;;;;;8.53;2.85;;;;;;;2.17;92.06;97846.45;1757096;80;20998;-89
2023/02/01 05:39:12;;;;;;;12.98;3.92;;;;;;;2.20;92.01;97842.00;1769675;80;21102;-89
2023/02/01 05:41:39;;;;;;;13.75;3.45;;;;;;;2.28;92.13;97849.40;1769555;80;20999;-88
2023/02/01 05:44:07;;;;;;;13.35;4.00;;;;;;;2.32;92.14;97835.47;1763313;80;21009;-90
2023/02/01 05:46:36;;;;;;;16.02;3.22;;;;;;;2.36;92.17;97837.02;1769791;79;21747;-90
2023/02/01 05:49:04;;;;;;;16.02;3.85;;;;;;;2.41;92.22;97845.39;1769700;79;21675;-89
2023/02/01 05:51:31;;;;;;;14.15;3.55;;;;;;;2.46;92.21;97842.16;1765330;80;21187;-91
2023/02/01 05:53:57;;;;;;;11.90;3.27;;;;;;;2.51;92.23;97844.97;1763899;80;21014;-91
2023/02/01 05:56:24;;;;;;;13.90;3.20;;;;;;;2.57;92.26;97826.66;1772610;79;21083;-92
2023/02/01 05:58:50;;;;;;;14.03;3.50;;;;;;;2.60;92.30;97827.80;1765657;80;21089;-92
2023/02/01 06:01:17;;;;;;;21.00;4.55;;;;;;;2.63;92.35;97830.23;1771120;80;21152;-90
2023/02/01 06:03:50;;;;;;;15.08;3.45;;;;;;;2.64;92.31;97838.38;1746723;80;21703;-87
2023/02/01 06:06:18;;;;;;;5.87;2.00;;;;;;;2.68;92.36;97852.77;1768268;80;21054;-88
2023/02/01 06:08:45;;;;;;;12.35;3.85;;;;;;;2.72;92.38;97854.33;1766329;80;21553;-94
2023/02/01 06:11:18;;;;;;;15.20;4.55;;;;;;;2.74;92.37;97851.20;1767767;80;21062;-92
2023/02/01 06:13:46;;;;;;;18.12;3.62;;;;;;;2.73;92.45;97855.98;1692509;81;21591;-92
2023/02/01 06:16:14;;;;;;;20.15;3.90;;;;;;;2.76;92.43;97843.41;1726018;81;20995;-94
2023/02/01 06:18:43;;;;;;;15.80;3.80;;;;;;;2.78;92.46;97839.86;1707471;82;21081;-90
2023/02/01 06:21:14;;;;;;;15.23;3.53;;;;;;;2.80;92.51;97854.81;1723170;81;21062;-93
2023/02/01 06:23:41;;;;;;;14.65;3.50;;;;;;;2.79;92.63;97844.10;1681417;84;21587;-91
2023/02/01 06:26:17;;;;;;;16.32;3.55;;;;;;;2.82;92.47;97850.41;1716659;82;21050;-90
2023/02/01 06:29:07;;;;;;;12.03;3.15;;;;;;;2.81;92.43;97856.47;1689385;83;21100;-90
2023/02/01 06:31:47;;;;;;;10.05;2.83;;;;;;;2.80;92.52;97849.66;1687927;83;21127;-89
2023/02/01 06:34:18;;;;;;;13.00;3.17;;;;;;;2.80;92.49;97851.37;1632891;86;21155;-91
2023/02/01 06:36:45;;;;;;;14.58;3.42;;;;;;;2.82;92.59;97852.98;1627187;86;21615;-90
2023/02/01 06:39:15;;;;;;;9.75;2.52;;;;;;;2.80;92.52;97857.39;1625626;87;21025;-91
2023/02/01 06:41:40;;;;;;;13.80;3.08;;;;;;;2.80;92.56;97852.23;1625266;87;21619;-90
2023/02/01 06:44:06;;;;;;;14.53;3.53;;;;;;;2.80;92.51;97859.97;1623454;87;21149;-92
2023/02/01 06:46:33;;;;;;;12.87;3.17;;;;;;;2.82;92.58;97867.61;1626072;87;21533;-92
2023/02/01 06:49:01;;;;;;;11.00;2.98;;;;;;;2.84;92.62;97874.37;1623178;87;21575;-88
2023/02/01 06:51:29;;;;;;;13.20;4.00;;;;;;;2.85;92.59;97876.03;1625071;87;21103;-89
2023/02/01 06:53:56;;;;;;;18.00;3.87;;;;;;;2.88;92.59;97863.00;1626704;87;21056;-89
2023/02/01 06:56:23;;;;;;;13.10;3.42;;;;;;;2.89;92.63;97876.30;1627180;87;21068;-90
2023/02/01 06:58:50;;;;;;;14.28;3.37;;;;;;;2.90;92.58;97868.93;1624198;87;21016;-95
2023/02/01 07:01:18;;;;;;;19.62;3.62;;;;;;;2.94;92.59;97857.19;1629055;87;21091;-88
2023/02/01 07:03:50;;;;;;;22.15;5.10;;;;;;;2.95;92.58;97874.34;1624356;87;21068;-88
2023/02/01 07:06:18;;;;;;;14.73;4.25;;;;;;;2.96;92.60;97885.03;1625978;87;21100;-87
2023/02/01 07:08:45;;;;;;;18.42;4.53;;;;;;;2.97;92.53;97877.67;1623393;87;21481;-88
2023/02/01 07:11:14;;;;;;;13.43;3.27;;;;;;;2.99;92.55;97884.89;1640138;84;21081;-89
2023/02/01 07:13:41;;;;;;;19.35;3.98;;;;;;;3.00;92.49;97868.53;1689109;83;21088;-90
2023/02/01 07:16:12;;;;;;;15.97;3.80;;;;;;;3.02;92.51;97895.05;1674326;84;21103;-88
2023/02/01 07:18:42;;;;;;;13.08;3.60;;;;;;;3.02;92.47;97886.03;1690031;83;21869;-87
2023/02/01 07:21:09;;;;;;;16.15;4.05;;;;;;;3.07;92.49;97893.11;1676169;84;21178;-89
2023/02/01 07:23:36;;;;;;;13.10;3.62;;;;;;;3.11;92.47;97899.81;1661456;84;21091;-89
2023/02/01 07:26:07;;;;;;;17.95;3.98;;;;;;;3.16;92.43;97897.83;1679849;83;21006;-90
2023/02/01 07:28:35;;;;;;;16.87;3.77;;;;;;;3.18;92.28;97892.62;1679355;83;21049;-91
2023/02/01 07:31:09;;;;;;;15.35;4.17;;;;;;;3.15;92.25;97902.62;1737135;80;21478;-89
2023/02/01 07:33:37;;;;;;;15.98;3.62;;;;;;;3.16;92.31;97874.63;1742372;80;21046;-91
2023/02/01 07:36:06;;;;;;;11.50;3.00;;;;;;;3.19;92.18;97908.00;1751655;80;21022;-91
2023/02/01 07:38:33;;;;;;;13.18;3.10;;;;;;;3.20;92.20;97912.27;1751411;81;21542;-90
2023/02/01 07:41:05;;;;;;;12.37;4.33;;;;;;;3.25;92.20;97901.30;1746953;80;21085;-87
2023/02/01 07:43:33;;;;;;;17.12;3.52;;;;;;;3.28;92.12;97898.57;1749918;81;21587;-88
2023/02/01 07:45:59;;;;;;;17.23;3.33;;;;;;;3.31;92.15;97894.55;1747434;80;21134;-95
2023/02/01 07:48:27;;;;;;;18.92;4.70;;;;;;;3.34;92.06;97909.88;1747755;80;21061;-90
2023/02/01 07:51:06;;;;;;;17.02;3.75;;;;;;;3.36;91.92;97902.92;1708540;80;21055;-94
2023/02/01 07:53:35;;;;;;;18.52;4.03;;;;;;;3.41;92.07;97914.75;1768212;80;21086;-96
2023/02/01 07:56:11;;;;;;;16.65;4.20;;;;;;;3.39;91.78;97898.50;1753925;80;21078;-91
2023/02/01 07:58:38;;;;;;;15.05;4.12;;;;;;;3.41;91.88;97899.27;1731735;81;21160;-94
2023/02/01 08:01:20;;;;;;;10.50;3.23;;;;;;;3.40;91.96;97896.32;1774552;79;21199;-94
2023/02/01 08:04:01;;;;;;;16.82;4.35;;;;;;;3.45;91.82;97900.81;1772575;79;22598;-94
2023/02/01 08:06:34;;;;;;;18.17;4.15;;;;;;;3.46;91.65;97897.31;1745735;81;21552;-96
2023/02/01 08:09:02;;;;;;;14.90;4.03;;;;;;;3.47;91.57;97893.81;1755965;80;20958;-90
2023/02/01 08:11:28;;;;;;;13.98;5.10;;;;;;;3.49;91.58;97884.27;1752465;80;21022;-92
2023/02/01 08:13:55;;;;;;;13.68;3.58;;;;;;;3.50;91.44;97898.83;1759071;80;21134;-93
2023/02/01 08:16:23;;;;;;;18.82;4.05;;;;;;;3.49;91.37;97908.31;1741173;80;21137;-95
2023/02/01 08:18:53;;;;;;;19.48;3.35;;;;;;;3.51;91.46;97882.45;1740147;80;21033;-92
2023/02/01 08:21:23;;;;;;;18.12;4.05;;;;;;;3.49;91.21;97902.33;1776183;80;21161;-91
2023/02/01 08:23:50;;;;;;;20.20;3.85;;;;;;;3.48;91.16;97896.80;1739218;81;21506;-91
2023/02/01 08:26:24;;;;;;;17.50;4.50;;;;;;;3.52;91.23;97916.37;1743306;81;21074;-94
2023/02/01 08:28:59;;;;;;;18.67;4.42;;;;;;;3.55;91.21;97899.45;1732817;81;21125;-93
2023/02/01 08:31:28;;;;;;;18.02;4.55;;;;;;;3.61;91.10;97903.02;1737796;81;21125;-93
2023/02/01 08:33:59;;;;;;;21.42;4.45;;;;;;;3.64;90.97;97904.19;1736809;81;21102;-91
2023/02/01 08:36:29;;;;;;;22.70;3.40;;;;;;;3.61;90.75;97909.47;1724213;81;21150;-92
2023/02/01 08:38:57;;;;;;;19.37;4.83;;;;;;;3.61;90.69;97909.47;1701811;83;21014;-92
2023/02/01 08:41:27;;;;;;;17.87;4.00;;;;;;;3.56;90.44;97919.20;1721048;81;21084;-92
2023/02/01 08:43:54;;;;;;;26.85;4.03;;;;;;;3.54;90.53;97921.02;1690440;83;21077;-91
2023/02/01 08:46:35;;;;;;;15.57;4.70;;;;;;;3.56;90.49;97920.49;1704548;82;21021;-91
2023/02/01 08:48:57;;;;;;;18.90;3.77;;;;;;;3.54;90.37;97923.59;1725033;81;21156;-91
2023/02/01 08:51:25;;;;;;;21.90;4.47;;;;;;;3.49;90.22;97919.92;1719303;81;21006;-93
2023/02/01 08:53:52;;;;;;;18.48;4.65;;;;;;;3.46;90.29;97925.70;1707879;83;21089;-92
2023/02/01 08:56:20;;;;;;;23.30;3.80;;;;;;;3.40;89.85;97938.89;1711873;83;21058;-94
2023/02/01 08:58:47;;;;;;;15.13;2.95;;;;;;;3.40;89.85;97938.89;1706743;82;21451;-93
2023/02/01 09:01:16;;;;;;;9.33;3.13;;;;;;;3.34;90.02;97900.86;1726106;81;21052;-92
2023/02/01 09:03:45;;;;;;;12.65;3.33;;;;;;;3.29;89.85;97921.33;1698336;83;21156;-94
2023/02/01 09:06:17;;;;;;;10.48;3.08;;;;;;;3.27;90.00;97943.77;1726771;81;21076;-93
2023/02/01 09:08:45;;;;;;;11.88;3.22;;;;;;;3.25;89.94;97924.52;1727448;82;21021;-94
2023/02/01 09:11:27;;;;;;;17.32;3.75;;;;;;;3.24;89.90;97925.40;1722142;81;21048;-92
2023/02/01 09:13:53;;;;;;;10.95;2.58;;;;;;;3.26;90.00;97924.05;1703560;82;21133;-93
2023/02/01 09:16:20;;;;;;;17.55;3.95;;;;;;;3.29;89.98;97936.80;1708887;82;21121;-94
2023/02/01 09:18:47;;;;;;;12.15;3.77;;;;;;;3.28;89.90;97924.36;1702601;83;21059;-93
2023/02/01 09:21:23;;;;;;;;;;;;;;;;;;;;;
2023/02/01 09:23:48;;;;;;;10.98;3.35;;;;;;;3.30;89.86;97917.37;1700375;82;21553;-94
2023/02/01 09:26:13;;;;;;;13.85;3.20;;;;;;;3.38;89.94;97927.80;1690901;82;21602;-93
2023/02/01 09:28:40;;;;;;;16.13;3.10;;;;;;;3.38;89.84;97930.38;1707267;82;21109;-92
2023/02/01 09:31:06;;;;;;;9.78;2.67;;;;;;;3.39;89.77;97923.01;1728207;81;20994;-93
2023/02/01 09:33:36;;;;;;;16.25;3.27;;;;;;;3.41;89.80;97925.07;1678831;83;21650;-91
2023/02/01 09:36:05;;;;;;;18.23;4.65;;;;;;;3.43;89.83;97923.27;1708998;82;21066;-90
2023/02/01 09:38:38;;;;;;;14.55;3.52;;;;;;;3.48;89.87;97934.20;1750135;80;21182;-93
2023/02/01 09:41:11;;;;;;;16.93;3.87;;;;;;;3.49;89.80;97925.55;1740932;81;20991;-91
2023/02/01 09:44:10;;;;;;;17.48;3.42;;;;;;;3.54;89.82;97926.17;1651395;84;21140;-95
2023/02/01 09:46:37;;;;;;;12.40;2.37;;;;;;;3.57;89.77;97926.85;1645851;85;21188;-91
2023/02/01 09:49:18;;;;;;;11.60;2.80;;;;;;;3.64;89.72;97917.09;1644592;84;21088;-92
2023/02/01 09:51:48;;;;;;;13.40;3.12;;;;;;;3.67;89.71;97916.94;1619635;86;21634;-92
2023/02/01 09:54:25;;;;;;;10.18;2.62;;;;;;;3.66;89.80;97924.75;1640620;85;21066;-94
2023/02/01 09:57:11;;;;;;;13.15;3.12;;;;;;;3.71;89.72;97931.36;1656862;84;20991;-92
2023/02/01 09:59:59;;;;;;;13.38;4.95;;;;;;;3.71;89.57;97928.78;1654896;84;21022;-91
2023/02/01 10:02:52;;;;;;;;;;;;;;;;;;;;;
2023/02/01 10:05:17;;;;;;;7.55;2.60;;;;;;;3.66;89.54;97928.16;1568522;89;21331;-91
2023/02/01 10:07:55;;;;;;;6.25;2.45;;;;;;;3.65;89.67;97925.67;1582069;88;21128;-95
2023/02/01 10:10:48;;;;;;;;;;;;;;;;;;;;;
2023/02/01 10:13:31;;;;;;;10.58;3.55;;;;;;;3.65;89.58;97929.08;1574388;88;21174;-93
2023/02/01 10:16:15;;;;;;;11.73;3.65;;;;;;;3.72;89.78;97921.41;1524838;92;21186;-92
2023/02/01 10:19:09;;;;;;;13.20;2.90;;;;;;;3.81;89.81;97919.69;1527073;92;21132;-92
2023/02/01 10:21:50;;;;;;;17.75;4.33;;;;;;;3.83;89.78;97918.77;1559137;90;21600;-92
2023/02/01 10:24:40;;;;;;;14.73;3.60;;;;;;;3.84;89.68;97925.59;1580151;89;21099;-92
2023/02/01 10:30:52;;;;;;;9.75;2.58;;;;;;;3.86;89.66;97928.94;1571444;90;21150;-92
2023/02/01 10:33:39;;;;;;;8.98;2.42;;;;;;;4.07;89.98;97916.28;1549983;91;21107;-93
2023/02/01 10:36:50;;;;;;;10.58;2.50;;;;;;;4.21;89.60;97934.97;1575601;89;21110;-92
2023/02/01 10:39:19;;;;;;;11.15;2.37;;;;;;;4.21;89.49;97926.75;1557347;90;21107;-91
2023/02/01 10:42:53;;;;;;;17.42;3.20;;;;;;;4.21;89.46;97932.38;1569619;90;21611;-94
2023/02/01 10:45:50;;;;;;;9.60;3.10;;;;;;;4.14;89.20;97916.34;1592014;88;21121;-95
2023/02/01 10:48:17;;;;;;;13.95;2.85;;;;;;;4.30;89.58;97924.16;1563709;88;21020;-93
2023/02/01 10:50:55;;;;;;;8.58;2.55;;;;;;;4.41;89.52;97911.53;1603873;88;21648;-93
2023/02/01 10:54:21;;;;;;;12.10;3.17;;;;;;;4.39;89.26;97916.39;1627647;86;21101;-93
2023/02/01 10:56:49;;;;;;;14.60;3.08;;;;;;;4.30;89.18;97915.58;1653143;85;21549;-95
2023/02/01 10:59:39;;;;;;;9.18;2.10;;;;;;;4.25;89.26;97919.21;1691671;83;21121;-94
2023/02/01 11:02:17;;;;;;;9.88;3.00;;;;;;;4.23;89.18;97915.06;1694205;83;21120;-94
2023/02/01 11:04:45;;;;;;;9.75;2.50;;;;;;;4.14;89.13;97918.92;1697479;83;21581;-92
2023/02/01 11:07:26;;;;;;;9.20;2.90;;;;;;;4.10;89.02;97926.45;1718429;81;21045;-93
2023/02/01 11:09:56;;;;;;;8.83;2.37;;;;;;;3.99;88.89;97935.19;1771420;80;21131;-93
2023/02/01 11:12:30;;;;;;;9.13;1.92;;;;;;;3.93;88.83;97926.45;1735557;81;20958;-94
2023/02/01 11:15:20;;;;;;;8.10;2.12;;;;;;;3.93;89.03;97930.33;1751986;81;21485;-95
2023/02/01 11:17:56;;;;;;;9.23;2.33;;;;;;;3.95;88.95;97920.73;1717129;80;20998;-93
2023/02/01 11:20:43;;;;;;;6.83;1.90;;;;;;;3.97;89.02;97924.09;1773124;79;21006;-93
2023/02/01 11:23:17;;;;;;;7.25;2.15;;;;;;;4.03;89.11;97923.78;1723806;81;21053;-95
2023/02/01 11:25:57;;;;;;;7.90;2.70;;;;;;;3.98;88.60;97930.95;1751111;80;21009;-93
2023/02/01 11:28:29;;;;;;;4.90;1.60;;;;;;;3.77;88.33;97927.65;1745289;82;21071;-89
2023/02/01 11:31:04;;;;;;;4.95;1.42;;;;;;;3.58;88.25;97943.17;1750130;81;21034;-89
2023/02/01 11:33:37;;;;;;;3.62;1.50;;;;;;;3.38;88.10;97940.23;1668517;84;21047;-90
2023/02/01 11:36:15;;;;;;;4.25;1.30;;;;;;;3.23;88.34;97937.92;1666071;84;22429;-92
2023/02/01 11:39:14;;;;;;;4.20;1.75;;;;;;;3.20;88.46;97950.96;1668549;84;21583;-89
2023/02/01 11:42:13;;;;;;;3.70;1.30;;;;;;;3.12;88.33;97937.58;1595265;88;21120;-89
2023/02/01 11:44:45;;;;;;;3.75;1.20;;;;;;;3.13;88.46;97910.88;1596100;88;21045;-90
2023/02/01 11:47:23;;;;;;;4.15;1.57;;;;;;;3.03;88.23;97943.16;1595560;88;21068;-89
2023/02/01 11:49:59;;;;;;;5.25;1.90;;;;;;;3.03;88.48;97935.42;1595298;88;21113;-86
2023/02/01 11:53:18;;;;;;;5.60;2.08;;;;;;;3.54;89.50;97949.40;1578146;88;21823;-94
2023/02/01 11:56:10;;;;;;;11.08;4.22;;;;;;;3.73;88.36;97942.45;1575843;89;21160;-90
2023/02/01 11:58:50;;;;;;;10.32;2.75;;;;;;;3.43;87.86;97946.48;1555511;90;21102;-93
2023/02/01 12:01:40;;;;;;;10.88;3.52;;;;;;;3.30;88.17;97941.05;1584082;89;21046;-93
2023/02/01 12:04:33;;;;;;;6.22;2.35;;;;;;;3.11;88.23;97944.94;1577502;89;21081;-92
2023/02/01 12:07:44;;;;;;;5.75;1.90;;;;;;;2.99;88.14;97944.19;1505394;94;21156;-93
2023/02/01 12:10:30;;;;;;;3.10;1.27;;;;;;;2.83;88.18;97953.91;1526580;93;21172;-95
2023/02/01 12:13:11;;;;;;;4.40;1.82;;;;;;;2.93;88.55;97959.94;1521790;93;21186;-90
2023/02/01 12:16:09;;;;;;;6.90;1.98;;;;;;;2.84;88.12;97956.86;1522821;93;21085;-91
2023/02/01 12:18:43;;;;;;;6.42;1.92;;;;;;;2.63;88.06;97967.66;1523935;93;21096;-91
2023/02/01 12:21:53;;;;;;;4.05;1.67;;;;;;;2.45;88.16;97966.69;1516362;93;21093;-91
2023/02/01 12:24:37;;;;;;;6.67;1.90;;;;;;;2.30;88.18;97966.06;1521091;92;21149;-91
2023/02/01 12:27:54;;;;;;;6.30;1.55;;;;;;;2.14;88.20;97970.17;1522062;93;21799;-90
2023/02/01 12:30:47;;;;;;;4.40;1.80;;;;;;;2.06;88.29;97952.91;1542475;90;21094;-95
2023/02/01 12:33:38;;;;;;;5.47;1.20;;;;;;;1.99;88.29;97949.31;1562909;90;21137;-94
2023/02/01 12:36:28;;;;;;;4.37;1.22;;;;;;;2.04;88.72;97945.24;1515342;94;21121;-93
2023/02/01 12:39:19;;;;;;;6.12;2.02;;;;;;;2.32;89.21;97943.64;1506337;93;21208;-92
2023/02/01 12:41:51;;;;;;;8.13;2.83;;;;;;;2.58;89.05;97945.58;1522739;93;21546;-90